createdAt,value
2016-07-11T00:00:55.836Z,1002.92
2016-07-11T00:01:55.843Z,1002.91
2016-07-11T00:02:55.851Z,1002.96
2016-07-11T00:03:55.857Z,1002.98
2016-07-11T00:04:55.863Z,1003
2016-07-11T00:05:55.875Z,1002.96
2016-07-11T00:06:55.878Z,1002.97
2016-07-11T00:07:55.885Z,1002.99
2016-07-11T00:08:55.891Z,1003
2016-07-11T00:09:55.900Z,1002.99
2016-07-11T00:10:55.906Z,1002.94
2016-07-11T00:11:55.917Z,1002.9
2016-07-11T00:12:55.922Z,1002.96
2016-07-11T00:13:55.930Z,1002.94
2016-07-11T00:14:55.935Z,1002.92
2016-07-11T00:15:55.943Z,1002.94
2016-07-11T00:16:55.947Z,1002.95
2016-07-11T00:17:57.109Z,1002.98
2016-07-11T00:18:55.969Z,1003.04
2016-07-11T00:19:55.971Z,1003
2016-07-11T00:20:55.979Z,1003.02
2016-07-11T00:21:55.986Z,1003.03
2016-07-11T00:22:55.992Z,1003.02
2016-07-11T00:23:55.999Z,1003.05
2016-07-11T00:24:56.008Z,1003.06
2016-07-11T00:25:56.015Z,1003.07
2016-07-11T00:26:56.023Z,1003.08
2016-07-11T00:27:56.029Z,1003.09
2016-07-11T00:28:56.037Z,1003.13
2016-07-11T00:29:56.044Z,1003.07
2016-07-11T00:30:56.051Z,1003.1
2016-07-11T00:31:56.057Z,1003.04
2016-07-11T00:32:56.065Z,1003.02
2016-07-11T00:33:56.071Z,1003.07
2016-07-11T00:34:56.079Z,1003.04
2016-07-11T00:35:56.087Z,1003.06
2016-07-11T00:36:56.093Z,1003.05
2016-07-11T00:37:56.100Z,1003.01
2016-07-11T00:38:56.108Z,1003.07
2016-07-11T00:39:56.715Z,1003.04
2016-07-11T00:40:56.121Z,1003.06
2016-07-11T00:41:56.129Z,1003.05
2016-07-11T00:42:56.139Z,1003.06
2016-07-11T00:43:56.142Z,1003.07
2016-07-11T00:44:56.149Z,1003.05
2016-07-11T00:45:56.157Z,1003.04
2016-07-11T00:46:56.179Z,1003.05
2016-07-11T00:47:56.172Z,1003.05
2016-07-11T00:48:56.180Z,1003.08
2016-07-11T00:49:56.187Z,1003.06
2016-07-11T00:50:56.194Z,1003.02
2016-07-11T00:51:56.201Z,1003.02
2016-07-11T00:52:56.208Z,1003.02
2016-07-11T00:53:56.216Z,1003.07
2016-07-11T00:54:56.221Z,1003.07
2016-07-11T00:55:56.229Z,1003.08
2016-07-11T00:56:56.237Z,1003.08
2016-07-11T00:57:56.244Z,1003.09
2016-07-11T00:58:56.250Z,1003.08
2016-07-11T00:59:56.258Z,1003.08
2016-07-11T01:00:56.266Z,1003.05
2016-07-11T01:01:56.373Z,1003.09
2016-07-11T01:02:56.278Z,1003.06
2016-07-11T01:03:56.286Z,1003.08
2016-07-11T01:04:56.299Z,1003.1
2016-07-11T01:05:56.300Z,1003.12
2016-07-11T01:06:56.308Z,1003.06
2016-07-11T01:07:56.316Z,1003.1
2016-07-11T01:08:56.322Z,1003.06
2016-07-11T01:09:56.328Z,1003.06
2016-07-11T01:10:56.336Z,1003.04
2016-07-11T01:11:56.344Z,1003.07
2016-07-11T01:12:56.350Z,1003.01
2016-07-11T01:13:56.357Z,1003
2016-07-11T01:14:56.365Z,1003
2016-07-11T01:15:56.372Z,1002.97
2016-07-11T01:16:56.378Z,1002.97
2016-07-11T01:17:56.386Z,1002.96
2016-07-11T01:18:56.393Z,1002.95
2016-07-11T01:19:56.401Z,1002.91
2016-07-11T01:20:56.407Z,1002.97
2016-07-11T01:21:56.423Z,1002.91
2016-07-11T01:22:56.423Z,1002.91
2016-07-11T01:23:56.428Z,1002.94
2016-07-11T01:24:56.436Z,1002.93
2016-07-11T01:25:57.500Z,1002.94
2016-07-11T01:26:56.450Z,1002.88
2016-07-11T01:27:56.457Z,1002.91
2016-07-11T01:28:56.464Z,1002.88
2016-07-11T01:29:56.472Z,1002.86
2016-07-11T01:30:56.480Z,1002.85
2016-07-11T01:31:56.485Z,1002.89
2016-07-11T01:32:56.492Z,1002.91
2016-07-11T01:33:56.500Z,1002.86
2016-07-11T01:34:56.506Z,1002.85
2016-07-11T01:35:56.513Z,1002.9
2016-07-11T01:36:56.520Z,1002.87
2016-07-11T01:37:56.528Z,1002.88
2016-07-11T01:38:56.534Z,1002.87
2016-07-11T01:39:56.540Z,1002.85
2016-07-11T01:40:56.547Z,1002.91
2016-07-11T01:41:56.557Z,1002.87
2016-07-11T01:42:56.563Z,1002.85
2016-07-11T01:43:56.570Z,1002.87
2016-07-11T01:44:56.577Z,1002.85
2016-07-11T01:45:56.583Z,1002.9
2016-07-11T01:46:56.592Z,1002.96
2016-07-11T01:47:57.148Z,1002.93
2016-07-11T01:48:56.605Z,1002.93
2016-07-11T01:49:56.612Z,1002.96
2016-07-11T01:50:56.618Z,1002.95
2016-07-11T01:51:56.625Z,1002.96
2016-07-11T01:52:56.633Z,1002.91
2016-07-11T01:53:56.638Z,1002.87
2016-07-11T01:54:56.646Z,1002.88
2016-07-11T01:55:56.654Z,1002.88
2016-07-11T01:56:56.660Z,1002.86
2016-07-11T01:57:56.667Z,1002.86
2016-07-11T01:58:56.673Z,1002.85
2016-07-11T01:59:56.682Z,1002.81
2016-07-11T02:00:56.689Z,1002.86
2016-07-11T02:01:56.694Z,1002.89
2016-07-11T02:02:56.703Z,1002.93
2016-07-11T02:03:56.710Z,1002.95
2016-07-11T02:04:56.716Z,1002.98
2016-07-11T02:05:56.724Z,1003
2016-07-11T02:06:56.730Z,1002.94
2016-07-11T02:07:56.736Z,1003
2016-07-11T02:08:56.745Z,1002.95
2016-07-11T02:09:56.902Z,1002.93
2016-07-11T02:10:56.760Z,1002.94
2016-07-11T02:11:56.765Z,1002.92
2016-07-11T02:12:56.773Z,1002.9
2016-07-11T02:13:56.779Z,1002.93
2016-07-11T02:14:56.786Z,1002.87
2016-07-11T02:15:56.793Z,1002.86
2016-07-11T02:16:56.801Z,1002.85
2016-07-11T02:17:56.808Z,1002.87
2016-07-11T02:18:56.813Z,1002.83
2016-07-11T02:19:56.821Z,1002.82
2016-07-11T02:20:56.828Z,1002.81
2016-07-11T02:21:56.834Z,1002.81
2016-07-11T02:22:56.841Z,1002.8
2016-07-11T02:23:56.850Z,1002.78
2016-07-11T02:24:56.855Z,1002.82
2016-07-11T02:25:56.862Z,1002.84
2016-07-11T02:26:56.870Z,1002.79
2016-07-11T02:27:56.876Z,1002.78
2016-07-11T02:28:56.883Z,1002.75
2016-07-11T02:29:56.889Z,1002.77
2016-07-11T02:30:56.898Z,1002.75
2016-07-11T02:31:56.904Z,1002.73
2016-07-11T02:32:56.925Z,1002.7
2016-07-11T02:33:57.869Z,1002.7
2016-07-11T02:34:56.925Z,1002.69
2016-07-11T02:35:56.933Z,1002.69
2016-07-11T02:36:56.939Z,1002.7
2016-07-11T02:37:56.947Z,1002.71
2016-07-11T02:38:56.953Z,1002.67
2016-07-11T02:39:56.961Z,1002.7
2016-07-11T02:40:56.971Z,1002.72
2016-07-11T02:41:56.974Z,1002.7
2016-07-11T02:42:56.982Z,1002.67
2016-07-11T02:43:56.990Z,1002.71
2016-07-11T02:44:56.995Z,1002.69
2016-07-11T02:45:57.003Z,1002.7
2016-07-11T02:46:57.009Z,1002.68
2016-07-11T02:47:57.019Z,1002.67
2016-07-11T02:48:57.022Z,1002.65
2016-07-11T02:49:57.032Z,1002.67
2016-07-11T02:50:57.039Z,1002.64
2016-07-11T02:51:57.045Z,1002.69
2016-07-11T02:52:57.052Z,1002.67
2016-07-11T02:53:57.060Z,1002.67
2016-07-11T02:54:57.067Z,1002.74
2016-07-11T02:55:57.722Z,1002.69
2016-07-11T02:56:57.081Z,1002.7
2016-07-11T02:57:57.088Z,1002.72
2016-07-11T02:58:57.095Z,1002.77
2016-07-11T02:59:57.100Z,1002.73
2016-07-11T03:00:57.108Z,1002.78
2016-07-11T03:01:57.116Z,1002.77
2016-07-11T03:02:57.124Z,1002.74
2016-07-11T03:03:57.129Z,1002.76
2016-07-11T03:04:57.137Z,1002.75
2016-07-11T03:05:57.146Z,1002.74
2016-07-11T03:06:57.152Z,1002.8
2016-07-11T03:07:57.158Z,1002.72
2016-07-11T03:08:57.167Z,1002.71
2016-07-11T03:09:57.173Z,1002.76
2016-07-11T03:10:57.581Z,1002.69
2016-07-11T03:11:57.187Z,1002.71
2016-07-11T03:12:57.195Z,1002.71
2016-07-11T03:13:57.200Z,1002.67
2016-07-11T03:14:57.207Z,1002.68
2016-07-11T03:15:57.216Z,1002.67
2016-07-11T03:16:57.224Z,1002.66
2016-07-11T03:17:57.230Z,1002.66
2016-07-11T03:18:57.238Z,1002.69
2016-07-11T03:19:57.246Z,1002.75
2016-07-11T03:20:57.251Z,1002.71
2016-07-11T03:21:57.259Z,1002.75
2016-07-11T03:22:57.265Z,1002.71
2016-07-11T03:23:57.273Z,1002.69
2016-07-11T03:24:57.279Z,1002.67
2016-07-11T03:25:57.287Z,1002.65
2016-07-11T03:26:57.294Z,1002.69
2016-07-11T03:27:57.301Z,1002.7
2016-07-11T03:28:57.306Z,1002.68
2016-07-11T03:29:57.314Z,1002.71
2016-07-11T03:30:57.323Z,1002.72
2016-07-11T03:31:57.328Z,1002.75
2016-07-11T03:32:57.335Z,1002.78
2016-07-11T03:33:57.344Z,1002.81
2016-07-11T03:34:57.351Z,1002.76
2016-07-11T03:35:57.357Z,1002.85
2016-07-11T03:36:57.367Z,1002.84
2016-07-11T03:37:57.372Z,1002.88
2016-07-11T03:38:57.378Z,1002.91
2016-07-11T03:39:57.384Z,1002.93
2016-07-11T03:40:57.392Z,1002.87
2016-07-11T03:41:58.402Z,1002.88
2016-07-11T03:42:57.407Z,1002.87
2016-07-11T03:43:57.414Z,1002.91
2016-07-11T03:44:57.420Z,1002.89
2016-07-11T03:45:57.427Z,1002.89
2016-07-11T03:46:57.434Z,1002.92
2016-07-11T03:47:57.442Z,1002.91
2016-07-11T03:48:57.450Z,1002.84
2016-07-11T03:49:57.457Z,1002.8
2016-07-11T03:50:57.463Z,1002.89
2016-07-11T03:51:57.469Z,1002.86
2016-07-11T03:52:57.478Z,1002.89
2016-07-11T03:53:57.483Z,1002.84
2016-07-11T03:54:57.490Z,1002.79
2016-07-11T03:55:57.499Z,1002.88
2016-07-11T03:56:58.508Z,1002.87
2016-07-11T03:57:57.512Z,1002.84
2016-07-11T03:58:57.520Z,1002.82
2016-07-11T03:59:57.528Z,1002.9
2016-07-11T04:00:57.535Z,1002.86
2016-07-11T04:01:57.539Z,1002.87
2016-07-11T04:02:57.548Z,1002.84
2016-07-11T04:03:57.555Z,1002.85
2016-07-11T04:04:57.562Z,1002.9
2016-07-11T04:05:57.568Z,1002.88
2016-07-11T04:06:57.580Z,1002.87
2016-07-11T04:07:57.584Z,1002.87
2016-07-11T04:08:57.590Z,1002.89
2016-07-11T04:09:57.596Z,1002.9
2016-07-11T04:10:57.605Z,1002.91
2016-07-11T04:11:57.612Z,1002.94
2016-07-11T04:12:57.619Z,1002.89
2016-07-11T04:13:57.625Z,1002.92
2016-07-11T04:14:57.632Z,1002.9
2016-07-11T04:15:57.639Z,1002.85
2016-07-11T04:16:57.646Z,1002.85
2016-07-11T04:17:57.654Z,1002.85
2016-07-11T04:18:58.210Z,1002.88
2016-07-11T04:19:57.665Z,1002.88
2016-07-11T04:20:57.675Z,1002.86
2016-07-11T04:21:57.682Z,1002.94
2016-07-11T04:22:57.689Z,1002.94
2016-07-11T04:23:57.695Z,1002.91
2016-07-11T04:24:57.703Z,1002.93
2016-07-11T04:25:57.760Z,1002.94
2016-07-11T04:26:57.716Z,1002.91
2016-07-11T04:27:57.723Z,1002.93
2016-07-11T04:28:57.730Z,1002.86
2016-07-11T04:29:57.737Z,1002.91
2016-07-11T04:30:57.744Z,1002.92
2016-07-11T04:31:57.752Z,1002.91
2016-07-11T04:32:57.759Z,1002.93
2016-07-11T04:33:57.765Z,1002.93
2016-07-11T04:34:57.772Z,1002.94
2016-07-11T04:35:57.780Z,1002.98
2016-07-11T04:36:57.787Z,1002.98
2016-07-11T04:37:57.793Z,1002.98
2016-07-11T04:38:57.801Z,1003.06
2016-07-11T04:39:57.807Z,1002.96
2016-07-11T04:40:58.215Z,1002.96
2016-07-11T04:41:57.820Z,1003
2016-07-11T04:42:57.829Z,1003.03
2016-07-11T04:43:57.836Z,1002.98
2016-07-11T04:44:57.843Z,1003.04
2016-07-11T04:45:57.851Z,1003.07
2016-07-11T04:46:57.857Z,1003.04
2016-07-11T04:47:57.865Z,1003.07
2016-07-11T04:48:57.871Z,1003.06
2016-07-11T04:49:57.878Z,1003.07
2016-07-11T04:50:57.886Z,1003.1
2016-07-11T04:51:57.894Z,1003.07
2016-07-11T04:52:57.900Z,1003.03
2016-07-11T04:53:57.907Z,1003.07
2016-07-11T04:54:57.912Z,1003.05
2016-07-11T04:55:57.920Z,1003.05
2016-07-11T04:56:57.928Z,1003.07
2016-07-11T04:57:57.935Z,1003.08
2016-07-11T04:58:57.941Z,1003.05
2016-07-11T04:59:57.949Z,1003.08
2016-07-11T05:00:57.956Z,1003.1
2016-07-11T05:01:57.961Z,1003.07
2016-07-11T05:02:58.068Z,1003.11
2016-07-11T05:03:57.977Z,1003.15
2016-07-11T05:04:57.984Z,1003.14
2016-07-11T05:05:57.991Z,1003.17
2016-07-11T05:06:57.996Z,1003.16
2016-07-11T05:07:58.004Z,1003.17
2016-07-11T05:08:58.012Z,1003.15
2016-07-11T05:09:58.020Z,1003.13
2016-07-11T05:10:58.025Z,1003.11
2016-07-11T05:11:58.033Z,1003.15
2016-07-11T05:12:58.041Z,1003.21
2016-07-11T05:13:58.047Z,1003.18
2016-07-11T05:14:58.054Z,1003.19
2016-07-11T05:15:58.062Z,1003.23
2016-07-11T05:16:58.070Z,1003.28
2016-07-11T05:17:58.075Z,1003.23
2016-07-11T05:18:58.082Z,1003.19
2016-07-11T05:19:58.091Z,1003.21
2016-07-11T05:20:58.098Z,1003.27
2016-07-11T05:21:58.104Z,1003.32
2016-07-11T05:22:58.110Z,1003.25
2016-07-11T05:23:58.119Z,1003.26
2016-07-11T05:24:58.127Z,1003.26
2016-07-11T05:25:58.134Z,1003.24
2016-07-11T05:26:59.242Z,1003.23
2016-07-11T05:27:58.149Z,1003.26
2016-07-11T05:28:58.155Z,1003.2
2016-07-11T05:29:58.161Z,1003.3
2016-07-11T05:30:58.169Z,1003.39
2016-07-11T05:31:58.176Z,1003.29
2016-07-11T05:32:58.185Z,1003.25
2016-07-11T05:33:58.192Z,1003.3
2016-07-11T05:34:58.199Z,1003.29
2016-07-11T05:35:58.207Z,1003.33
2016-07-11T05:36:58.214Z,1003.25
2016-07-11T05:37:58.221Z,1003.34
2016-07-11T05:38:58.230Z,1003.35
2016-07-11T05:39:58.235Z,1003.47
2016-07-11T05:40:58.244Z,1003.44
2016-07-11T05:41:58.250Z,1003.42
2016-07-11T05:42:58.258Z,1003.45
2016-07-11T05:43:58.265Z,1003.48
2016-07-11T05:44:58.272Z,1003.41
2016-07-11T05:45:58.280Z,1003.39
2016-07-11T05:46:58.286Z,1003.42
2016-07-11T05:47:58.293Z,1003.41
2016-07-11T05:48:59.253Z,1003.38
2016-07-11T05:49:58.308Z,1003.44
2016-07-11T05:50:58.315Z,1003.49
2016-07-11T05:51:58.323Z,1003.46
2016-07-11T05:52:58.329Z,1003.46
2016-07-11T05:53:58.339Z,1003.43
2016-07-11T05:54:58.344Z,1003.37
2016-07-11T05:55:58.352Z,1003.37
2016-07-11T05:56:58.359Z,1003.41
2016-07-11T05:57:58.366Z,1003.5
2016-07-11T05:58:58.374Z,1003.57
2016-07-11T05:59:58.381Z,1003.53
2016-07-11T06:00:58.389Z,1003.59
2016-07-11T06:01:58.396Z,1003.68
2016-07-11T06:02:58.401Z,1003.51
2016-07-11T06:03:58.411Z,1003.52
2016-07-11T06:04:58.419Z,1003.49
2016-07-11T06:05:58.424Z,1003.51
2016-07-11T06:06:58.431Z,1003.51
2016-07-11T06:07:58.445Z,1003.54
2016-07-11T06:08:58.448Z,1003.58
2016-07-11T06:09:58.454Z,1003.65
2016-07-11T06:10:59.112Z,1003.67
2016-07-11T06:11:58.470Z,1003.75
2016-07-11T06:12:58.476Z,1003.7
2016-07-11T06:13:58.483Z,1003.65
2016-07-11T06:14:58.491Z,1003.69
2016-07-11T06:15:58.499Z,1003.63
2016-07-11T06:16:58.506Z,1003.67
2016-07-11T06:17:58.513Z,1003.71
2016-07-11T06:18:58.521Z,1003.65
2016-07-11T06:19:58.528Z,1003.63
2016-07-11T06:20:58.537Z,1003.66
2016-07-11T06:21:58.544Z,1003.78
2016-07-11T06:22:58.550Z,1003.77
2016-07-11T06:23:58.556Z,1003.8
2016-07-11T06:24:58.563Z,1003.84
2016-07-11T06:25:59.021Z,1003.87
2016-07-11T06:26:58.580Z,1003.88
2016-07-11T06:27:58.585Z,1003.91
2016-07-11T06:28:58.594Z,1003.89
2016-07-11T06:29:58.602Z,1003.94
2016-07-11T06:30:58.608Z,1003.98
2016-07-11T06:31:58.615Z,1004.03
2016-07-11T06:32:58.622Z,1004.03
2016-07-11T06:33:58.629Z,1004.14
2016-07-11T06:34:58.637Z,1004.04
2016-07-11T06:35:58.644Z,1004.02
2016-07-11T06:36:58.650Z,1003.96
2016-07-11T06:37:58.658Z,1003.98
2016-07-11T06:38:58.666Z,1004.06
2016-07-11T06:39:58.673Z,1004.1
2016-07-11T06:40:58.680Z,1004.06
2016-07-11T06:41:58.687Z,1004.08
2016-07-11T06:42:58.693Z,1004.11
2016-07-11T06:43:58.702Z,1004.08
2016-07-11T06:44:58.712Z,1004.06
2016-07-11T06:45:58.715Z,1004.03
2016-07-11T06:46:58.724Z,1004.01
2016-07-11T06:47:58.730Z,1004.01
2016-07-11T06:48:58.738Z,1004.03
2016-07-11T06:49:58.744Z,1004
2016-07-11T06:50:58.752Z,1003.99
2016-07-11T06:51:58.759Z,1003.98
2016-07-11T06:52:58.767Z,1004.02
2016-07-11T06:53:58.772Z,1004.02
2016-07-11T06:54:58.780Z,1003.99
2016-07-11T06:55:58.789Z,1003.97
2016-07-11T06:56:59.923Z,1004.01
2016-07-11T06:57:58.803Z,1004.04
2016-07-11T06:58:58.811Z,1004.02
2016-07-11T06:59:58.817Z,1004.07
2016-07-11T07:00:58.826Z,1004.21
2016-07-11T07:01:58.832Z,1004.12
2016-07-11T07:02:58.839Z,1004.18
2016-07-11T07:03:58.846Z,1004.23
2016-07-11T07:04:58.852Z,1004.17
2016-07-11T07:05:58.861Z,1004.2
2016-07-11T07:06:58.869Z,1004.21
2016-07-11T07:07:58.875Z,1004.18
2016-07-11T07:08:58.882Z,1004.18
2016-07-11T07:09:59.090Z,1004.21
2016-07-11T07:10:58.899Z,1004.32
2016-07-11T07:11:58.905Z,1004.17
2016-07-11T07:12:58.911Z,1004.28
2016-07-11T07:13:58.919Z,1004.23
2016-07-11T07:14:58.926Z,1004.18
2016-07-11T07:15:58.931Z,1004.18
2016-07-11T07:16:58.942Z,1004.17
2016-07-11T07:17:58.955Z,1004.02
2016-07-11T07:18:58.955Z,1004
2016-07-11T07:19:58.962Z,1004.04
2016-07-11T07:20:58.983Z,1004.09
2016-07-11T07:21:58.978Z,1004.07
2016-07-11T07:22:58.983Z,1004.07
2016-07-11T07:23:58.992Z,1003.95
2016-07-11T07:24:59.000Z,1003.91
2016-07-11T07:25:59.004Z,1003.86
2016-07-11T07:26:59.014Z,1003.9
2016-07-11T07:27:59.019Z,1003.91
2016-07-11T07:28:59.027Z,1003.96
2016-07-11T07:29:59.035Z,1003.99
2016-07-11T07:30:59.093Z,1004.05
2016-07-11T07:31:59.200Z,1004.15
2016-07-11T07:32:59.057Z,1004.38
2016-07-11T07:33:59.065Z,1004.32
2016-07-11T07:34:59.073Z,1004.58
2016-07-11T07:35:59.081Z,1004.48
2016-07-11T07:36:59.089Z,1004.25
2016-07-11T07:37:59.096Z,1004.13
2016-07-11T07:38:59.109Z,1004.17
2016-07-11T07:39:59.115Z,1004.17
2016-07-11T07:40:59.121Z,1004.19
2016-07-11T07:41:59.130Z,1004.2
2016-07-11T07:42:59.139Z,1004.18
2016-07-11T07:43:59.146Z,1004.16
2016-07-11T07:44:59.154Z,1004.14
2016-07-11T07:45:59.162Z,1004.12
2016-07-11T07:46:59.169Z,1004.18
2016-07-11T07:47:59.178Z,1004.1
2016-07-11T07:48:59.185Z,1004.09
2016-07-11T07:49:59.193Z,1004.06
2016-07-11T07:50:59.202Z,1003.99
2016-07-11T07:51:59.209Z,1004.04
2016-07-11T07:52:59.218Z,1003.99
2016-07-11T07:53:59.226Z,1004.02
2016-07-11T07:54:59.234Z,1004.02
2016-07-11T07:56:00.342Z,1004.12
2016-07-11T07:56:59.250Z,1004.03
2016-07-11T07:57:59.256Z,1004.18
2016-07-11T07:58:59.265Z,1004.1
2016-07-11T07:59:59.273Z,1004.03
2016-07-11T08:00:59.280Z,1004.08
2016-07-11T08:01:59.288Z,1004.13
2016-07-11T08:02:59.295Z,1004.03
2016-07-11T08:03:59.302Z,1004.11
2016-07-11T08:04:59.311Z,1004.17
2016-07-11T08:05:59.318Z,1004.21
2016-07-11T08:06:59.327Z,1004.16
2016-07-11T08:07:59.334Z,1004.14
2016-07-11T08:08:59.342Z,1004.29
2016-07-11T08:09:59.349Z,1004.34
2016-07-11T08:10:59.358Z,1004.24
2016-07-11T08:11:59.363Z,1004.4
2016-07-11T08:12:59.374Z,1004.42
2016-07-11T08:13:59.380Z,1004.32
2016-07-11T08:14:59.390Z,1004.44
2016-07-11T08:15:59.421Z,1004.39
2016-07-11T08:16:59.404Z,1004.31
2016-07-11T08:18:00.262Z,1004.37
2016-07-11T08:18:59.419Z,1004.43
2016-07-11T08:19:59.428Z,1004.45
2016-07-11T08:20:59.433Z,1004.48
2016-07-11T08:21:59.441Z,1004.55
2016-07-11T08:22:59.449Z,1004.48
2016-07-11T08:23:59.457Z,1004.52
2016-07-11T08:24:59.464Z,1004.47
2016-07-11T08:25:59.473Z,1004.48
2016-07-11T08:26:59.480Z,1004.48
2016-07-11T08:27:59.487Z,1004.46
2016-07-11T08:28:59.497Z,1004.39
2016-07-11T08:29:59.505Z,1004.51
2016-07-11T08:30:59.513Z,1004.56
2016-07-11T08:31:59.519Z,1004.58
2016-07-11T08:32:59.526Z,1004.53
2016-07-11T08:33:59.536Z,1004.57
2016-07-11T08:34:59.543Z,1004.52
2016-07-11T08:35:59.548Z,1004.58
2016-07-11T08:36:59.559Z,1004.47
2016-07-11T08:37:59.566Z,1004.46
2016-07-11T08:38:59.572Z,1004.51
2016-07-11T08:40:00.332Z,1004.53
2016-07-11T08:40:59.588Z,1004.52
2016-07-11T08:41:59.596Z,1004.47
2016-07-11T08:42:59.602Z,1004.49
2016-07-11T08:43:59.608Z,1004.46
2016-07-11T08:44:59.618Z,1004.45
2016-07-11T08:45:59.625Z,1004.43
2016-07-11T08:46:59.635Z,1004.49
2016-07-11T08:47:59.643Z,1004.54
2016-07-11T08:48:59.649Z,1004.55
2016-07-11T08:49:59.657Z,1004.57
2016-07-11T08:50:59.665Z,1004.59
2016-07-11T08:51:59.671Z,1004.57
2016-07-11T08:52:59.680Z,1004.69
2016-07-11T08:53:59.687Z,1004.58
2016-07-11T08:55:00.397Z,1004.51
2016-07-11T08:55:59.703Z,1004.51
2016-07-11T08:56:59.711Z,1004.52
2016-07-11T08:57:59.718Z,1004.49
2016-07-11T08:58:59.725Z,1004.44
2016-07-11T08:59:59.733Z,1004.43
2016-07-11T09:00:59.740Z,1004.45
2016-07-11T09:01:59.748Z,1004.4
2016-07-11T09:02:59.756Z,1004.46
2016-07-11T09:03:59.764Z,1004.35
2016-07-11T09:04:59.769Z,1004.39
2016-07-11T09:05:59.778Z,1004.42
2016-07-11T09:06:59.786Z,1004.44
2016-07-11T09:07:59.791Z,1004.34
2016-07-11T09:08:59.800Z,1004.41
2016-07-11T09:09:59.808Z,1004.44
2016-07-11T09:10:59.814Z,1004.5
2016-07-11T09:11:59.825Z,1004.67
2016-07-11T09:12:59.828Z,1004.57
2016-07-11T09:13:59.836Z,1004.58
2016-07-11T09:14:59.845Z,1004.68
2016-07-11T09:15:59.851Z,1004.64
2016-07-11T09:17:00.259Z,1004.66
2016-07-11T09:17:59.867Z,1004.73
2016-07-11T09:18:59.874Z,1004.73
2016-07-11T09:19:59.881Z,1004.7
2016-07-11T09:20:59.891Z,1004.53
2016-07-11T09:21:59.894Z,1004.5
2016-07-11T09:22:59.902Z,1004.54
2016-07-11T09:23:59.911Z,1004.59
2016-07-11T09:24:59.918Z,1004.62
2016-07-11T09:25:59.924Z,1004.57
2016-07-11T09:26:59.931Z,1004.51
2016-07-11T09:27:59.937Z,1004.46
2016-07-11T09:28:59.957Z,1004.44
2016-07-11T09:29:59.953Z,1004.46
2016-07-11T09:30:59.959Z,1004.53
2016-07-11T09:31:59.968Z,1004.45
2016-07-11T09:32:59.975Z,1004.44
2016-07-11T09:33:59.982Z,1004.5
2016-07-11T09:35:00.039Z,1004.4
2016-07-11T09:36:00.002Z,1004.47
2016-07-11T09:37:00.005Z,1004.55
2016-07-11T09:38:00.016Z,1004.48
2016-07-11T09:39:00.320Z,1004.48
2016-07-11T09:40:00.026Z,1004.49
2016-07-11T09:41:00.034Z,1004.59
2016-07-11T09:42:00.041Z,1004.6
2016-07-11T09:43:00.048Z,1004.58
2016-07-11T09:44:00.055Z,1004.64
2016-07-11T09:45:00.064Z,1004.66
2016-07-11T09:46:00.072Z,1004.75
2016-07-11T09:47:00.078Z,1004.54
2016-07-11T09:48:00.087Z,1004.53
2016-07-11T09:49:00.093Z,1004.51
2016-07-11T09:50:00.100Z,1004.54
2016-07-11T09:51:00.112Z,1004.65
2016-07-11T09:52:00.115Z,1004.64
2016-07-11T09:53:00.122Z,1004.56
2016-07-11T09:54:00.131Z,1004.58
2016-07-11T09:55:00.138Z,1004.57
2016-07-11T09:56:00.145Z,1004.53
2016-07-11T09:57:00.152Z,1004.55
2016-07-11T09:58:00.161Z,1004.59
2016-07-11T09:59:00.167Z,1004.53
2016-07-11T10:00:00.174Z,1004.58
2016-07-11T10:01:00.282Z,1004.6
2016-07-11T10:02:00.188Z,1004.57
2016-07-11T10:03:00.197Z,1004.52
2016-07-11T10:04:00.204Z,1004.59
2016-07-11T10:05:00.211Z,1004.59
2016-07-11T10:06:00.218Z,1004.58
2016-07-11T10:07:00.229Z,1004.49
2016-07-11T10:08:00.234Z,1004.54
2016-07-11T10:09:00.239Z,1004.54
2016-07-11T10:10:00.246Z,1004.57
2016-07-11T10:11:00.254Z,1004.54
2016-07-11T10:12:00.262Z,1004.52
2016-07-11T10:13:00.270Z,1004.67
2016-07-11T10:14:00.276Z,1004.59
2016-07-11T10:15:00.283Z,1004.57
2016-07-11T10:16:00.291Z,1004.58
2016-07-11T10:17:00.301Z,1004.59
2016-07-11T10:18:00.305Z,1004.64
2016-07-11T10:19:00.312Z,1004.56
2016-07-11T10:20:00.321Z,1004.61
2016-07-11T10:21:00.327Z,1004.56
2016-07-11T10:22:00.333Z,1004.6
2016-07-11T10:23:00.442Z,1004.56
2016-07-11T10:24:00.348Z,1004.54
2016-07-11T10:25:00.353Z,1004.58
2016-07-11T10:26:00.363Z,1004.59
2016-07-11T10:27:00.369Z,1004.55
2016-07-11T10:28:00.375Z,1004.59
2016-07-11T10:29:00.382Z,1004.63
2016-07-11T10:30:00.390Z,1004.64
2016-07-11T10:31:00.398Z,1004.6
2016-07-11T10:32:00.405Z,1004.66
2016-07-11T10:33:00.410Z,1004.67
2016-07-11T10:34:00.418Z,1004.7
2016-07-11T10:35:00.475Z,1004.71
2016-07-11T10:36:00.433Z,1004.76
2016-07-11T10:37:00.440Z,1004.68
2016-07-11T10:38:00.445Z,1004.69
2016-07-11T10:39:00.452Z,1004.69
2016-07-11T10:40:00.461Z,1004.78
2016-07-11T10:41:00.464Z,1004.71
2016-07-11T10:42:00.472Z,1004.67
2016-07-11T10:43:00.479Z,1004.7
2016-07-11T10:44:00.488Z,1004.64
2016-07-11T10:45:00.493Z,1004.69
2016-07-11T10:46:00.499Z,1004.69
2016-07-11T10:47:01.608Z,1004.71
2016-07-11T10:48:00.515Z,1004.7
2016-07-11T10:49:00.520Z,1004.63
2016-07-11T10:50:00.527Z,1004.62
2016-07-11T10:51:00.532Z,1004.58
2016-07-11T10:52:00.541Z,1004.7
2016-07-11T10:53:00.549Z,1004.74
2016-07-11T10:54:00.557Z,1004.73
2016-07-11T10:55:00.559Z,1004.64
2016-07-11T10:56:00.566Z,1004.65
2016-07-11T10:57:00.573Z,1004.7
2016-07-11T10:58:00.580Z,1004.7
2016-07-11T10:59:00.587Z,1004.69
2016-07-11T11:00:00.594Z,1004.7
2016-07-11T11:01:00.601Z,1004.71
2016-07-11T11:02:00.607Z,1004.7
2016-07-11T11:03:00.615Z,1004.73
2016-07-11T11:04:00.622Z,1004.69
2016-07-11T11:05:00.630Z,1004.76
2016-07-11T11:06:00.636Z,1004.76
2016-07-11T11:07:00.644Z,1004.73
2016-07-11T11:08:00.650Z,1004.72
2016-07-11T11:09:01.358Z,1004.69
2016-07-11T11:10:00.669Z,1004.75
2016-07-11T11:11:00.671Z,1004.7
2016-07-11T11:12:00.676Z,1004.69
2016-07-11T11:13:00.683Z,1004.74
2016-07-11T11:14:00.690Z,1004.64
2016-07-11T11:15:00.697Z,1004.71
2016-07-11T11:16:00.702Z,1004.73
2016-07-11T11:17:00.710Z,1004.67
2016-07-11T11:18:00.717Z,1004.67
2016-07-11T11:19:00.726Z,1004.67
2016-07-11T11:20:00.730Z,1004.62
2016-07-11T11:21:00.739Z,1004.6
2016-07-11T11:22:00.745Z,1004.56
2016-07-11T11:23:00.752Z,1004.54
2016-07-11T11:24:01.511Z,1004.53
2016-07-11T11:25:00.767Z,1004.57
2016-07-11T11:26:00.773Z,1004.55
2016-07-11T11:27:00.781Z,1004.53
2016-07-11T11:28:00.788Z,1004.61
2016-07-11T11:29:00.796Z,1004.6
2016-07-11T11:30:00.802Z,1004.69
2016-07-11T11:31:00.809Z,1004.68
2016-07-11T11:32:00.815Z,1004.72
2016-07-11T11:33:00.872Z,1004.66
2016-07-11T11:34:00.829Z,1004.64
2016-07-11T11:35:00.836Z,1004.74
2016-07-11T11:36:00.844Z,1004.67
2016-07-11T11:37:00.851Z,1004.65
2016-07-11T11:38:00.856Z,1004.61
2016-07-11T11:39:00.863Z,1004.57
2016-07-11T11:40:00.877Z,1004.67
2016-07-11T11:41:00.877Z,1004.63
2016-07-11T11:42:00.885Z,1004.56
2016-07-11T11:43:00.900Z,1004.59
2016-07-11T11:44:00.971Z,1004.61
2016-07-11T11:45:00.906Z,1004.64
2016-07-11T11:46:01.814Z,1004.64
2016-07-11T11:47:00.921Z,1004.54
2016-07-11T11:48:00.927Z,1004.52
2016-07-11T11:49:00.935Z,1004.57
2016-07-11T11:50:00.939Z,1004.59
2016-07-11T11:51:00.948Z,1004.59
2016-07-11T11:52:01.061Z,1004.67
2016-07-11T11:53:00.962Z,1004.63
2016-07-11T11:54:01.130Z,1004.58
2016-07-11T11:55:00.977Z,1004.6
2016-07-11T11:56:00.984Z,1004.58
2016-07-11T11:57:01.128Z,1004.55
2016-07-11T11:58:01.001Z,1004.55
2016-07-11T12:00:01.204Z,1004.66
2016-07-11T12:01:01.108Z,1004.63
2016-07-11T12:02:01.026Z,1004.73
2016-07-11T12:03:01.035Z,1004.63
2016-07-11T12:04:01.219Z,1004.71
2016-07-11T12:05:01.193Z,1004.64
2016-07-11T12:06:01.145Z,1004.67
2016-07-11T12:07:01.227Z,1004.66
2016-07-11T12:08:01.621Z,1004.67
2016-07-11T12:09:01.078Z,1004.66
2016-07-11T12:10:01.087Z,1004.65